Terminal Aerodrome Forecast
Issued by NWS Missoula, MT

Home | Current Version | Previous Version | Text Only | Print | Product List | Glossary On
Versions: 1 2 3 4 5 6 7 8 9 10 11 12 13 14 15 16 17 18 19
000
FTUS45 KMSO 251417 AAC
TAFMSO
TAF AMD
KMSO 251417Z 2514/2612 16005KT P6SM VCFG SCT020
      TEMPO 2514/2515 3SM BR BKN005
     FM251600 13004KT P6SM FEW120
     FM252200 20010G18KT P6SM SCT120
     FM260000 18007KT P6SM BKN100=

USA.gov is the U.S. government's official web portal to all federal, state and local government web resources and services.